createdAt,value
2023-05-10T00:01:32.051Z,16.00
2023-05-10T00:03:59.659Z,12.38
2023-05-10T00:06:27.886Z,17.73
2023-05-10T00:08:55.420Z,20.02
2023-05-10T00:11:23.264Z,17.88
2023-05-10T00:13:51.043Z,18.17
2023-05-10T00:16:18.588Z,12.23
2023-05-10T00:18:46.128Z,15.75
2023-05-10T00:21:13.669Z,17.25
2023-05-10T00:23:41.310Z,17.90
2023-05-10T00:26:08.865Z,14.40
2023-05-10T00:28:38.811Z,11.60
2023-05-10T00:31:06.370Z,15.98
2023-05-10T00:33:33.959Z,23.02
2023-05-10T00:36:01.521Z,17.13
2023-05-10T00:38:29.110Z,14.90
2023-05-10T00:40:57.974Z,21.38
2023-05-10T00:43:30.943Z,13.88
2023-05-10T00:45:58.932Z,12.75
2023-05-10T00:48:26.553Z,15.25
2023-05-10T00:50:54.162Z,14.93
2023-05-10T00:53:22.142Z,16.35
2023-05-10T00:55:49.749Z,18.60
2023-05-10T00:58:17.665Z,17.60
2023-05-10T01:00:49.487Z,14.20
2023-05-10T01:03:17.096Z,17.75
2023-05-10T01:05:44.677Z,17.13
2023-05-10T01:08:12.390Z,16.00
2023-05-10T01:10:40.017Z,17.60
2023-05-10T01:13:07.717Z,17.73
2023-05-10T01:15:35.643Z,17.63
2023-05-10T01:18:04.295Z,22.02
2023-05-10T01:20:41.576Z,13.15
2023-05-10T01:23:35.944Z,14.70
2023-05-10T01:26:42.086Z,13.27
2023-05-10T01:29:40.296Z,12.60
2023-05-10T01:32:07.861Z,19.27
2023-05-10T01:35:11.604Z,16.25
2023-05-10T01:37:43.445Z,13.73
2023-05-10T01:40:19.669Z,18.40
2023-05-10T01:42:54.450Z,18.45
2023-05-10T01:45:42.747Z,15.98
2023-05-10T01:48:12.605Z,13.00
2023-05-10T01:50:43.321Z,16.92
2023-05-10T01:53:14.075Z,16.50
2023-05-10T01:55:51.828Z,18.77
2023-05-10T01:58:41.302Z,15.65
2023-05-10T02:01:11.163Z,18.35
2023-05-10T02:03:41.002Z,14.57
2023-05-10T02:06:11.659Z,12.07
2023-05-10T02:08:41.069Z,15.52
2023-05-10T02:11:12.267Z,14.65
2023-05-10T02:13:41.092Z,15.10
2023-05-10T02:16:09.399Z,19.35
2023-05-10T02:18:37.816Z,13.75
2023-05-10T02:21:06.102Z,21.25
2023-05-10T02:23:38.417Z,11.90
2023-05-10T02:26:07.517Z,13.63
2023-05-10T02:28:38.626Z,14.85
2023-05-10T02:31:11.554Z,14.80
2023-05-10T02:33:43.967Z,14.13
2023-05-10T02:36:13.569Z,14.43
2023-05-10T02:38:42.037Z,18.30
2023-05-10T02:41:11.349Z,13.13
2023-05-10T02:43:40.798Z,17.27
2023-05-10T02:46:08.450Z,10.57
2023-05-10T02:48:37.435Z,14.32
2023-05-10T02:51:08.080Z,11.35
2023-05-10T02:53:38.517Z,11.52
2023-05-10T02:56:14.394Z,15.27
2023-05-10T02:58:42.215Z,14.30
2023-05-10T03:01:10.150Z,20.58
2023-05-10T03:03:37.768Z,18.25
2023-05-10T03:06:05.622Z,16.33
2023-05-10T03:08:33.224Z,11.52
2023-05-10T03:11:38.494Z,19.15
2023-05-10T03:14:45.779Z,14.75
2023-05-10T03:17:48.013Z,11.68
2023-05-10T03:20:25.653Z,15.63
2023-05-10T03:23:00.788Z,21.38
2023-05-10T03:25:30.879Z,14.73
2023-05-10T03:28:00.617Z,14.32
2023-05-10T03:30:29.081Z,12.57
2023-05-10T03:32:58.055Z,16.17
2023-05-10T03:35:26.160Z,16.88
2023-05-10T03:37:53.723Z,13.88
2023-05-10T03:40:21.827Z,12.73
2023-05-10T03:42:49.832Z,21.88
2023-05-10T03:45:17.541Z,17.75
2023-05-10T03:47:45.085Z,14.85
2023-05-10T03:50:12.921Z,20.27
2023-05-10T03:52:41.076Z,17.00
2023-05-10T03:55:11.831Z,15.50
2023-05-10T03:57:39.938Z,17.53
2023-05-10T04:00:09.254Z,16.92
2023-05-10T04:02:43.185Z,15.65
2023-05-10T04:05:16.258Z,18.60
2023-05-10T04:07:45.321Z,20.25
2023-05-10T04:10:13.225Z,18.73
2023-05-10T04:12:40.972Z,15.75
2023-05-10T04:15:09.192Z,17.00
2023-05-10T04:17:36.816Z,16.77
2023-05-10T04:20:04.926Z,16.33
2023-05-10T04:22:33.541Z,16.70
2023-05-10T04:25:01.074Z,19.27
2023-05-10T04:27:28.623Z,19.58
2023-05-10T04:29:56.173Z,21.30
2023-05-10T04:32:24.146Z,15.93
2023-05-10T04:34:52.355Z,11.80
2023-05-10T04:37:20.844Z,15.15
2023-05-10T04:39:48.626Z,17.30
2023-05-10T04:42:16.456Z,22.65
2023-05-10T04:44:44.605Z,17.35
2023-05-10T04:47:14.112Z,14.20
2023-05-10T04:49:41.686Z,15.85
2023-05-10T04:52:09.543Z,14.50
2023-05-10T04:54:37.102Z,12.52
2023-05-10T04:57:04.731Z,11.63
2023-05-10T04:59:32.243Z,17.38
2023-05-10T05:01:59.872Z,22.30
2023-05-10T05:04:27.489Z,17.30
2023-05-10T05:06:55.054Z,18.55
2023-05-10T05:09:22.619Z,16.25
2023-05-10T05:11:50.292Z,18.20
2023-05-10T05:14:17.810Z,15.73
2023-05-10T05:16:45.444Z,19.13
2023-05-10T05:19:12.996Z,17.55
2023-05-10T05:21:41.207Z,14.73
2023-05-10T05:24:09.588Z,18.08
2023-05-10T05:26:37.808Z,18.75
2023-05-10T05:29:05.823Z,21.25
2023-05-10T05:31:33.444Z,22.88
2023-05-10T05:34:01.139Z,17.42
2023-05-10T05:36:28.623Z,20.15
2023-05-10T05:38:56.279Z,17.95
2023-05-10T05:41:25.487Z,15.35
2023-05-10T05:43:53.075Z,22.17
2023-05-10T05:46:20.844Z,17.92
2023-05-10T05:48:48.485Z,21.00
2023-05-10T05:51:16.065Z,14.73
2023-05-10T05:53:43.825Z,17.20
2023-05-10T05:56:11.394Z,18.50
2023-05-10T05:58:38.979Z,16.80
2023-05-10T06:01:06.499Z,21.55
2023-05-10T06:03:34.263Z,13.90
2023-05-10T06:06:01.837Z,18.60
2023-05-10T06:08:29.474Z,13.30
2023-05-10T06:10:57.399Z,14.35
2023-05-10T06:13:24.868Z,22.85
2023-05-10T06:15:52.505Z,15.25
2023-05-10T06:18:20.113Z,15.18
2023-05-10T06:20:47.711Z,14.55
2023-05-10T06:23:15.609Z,16.05
2023-05-10T06:25:43.296Z,13.65
2023-05-10T06:28:10.938Z,17.67
2023-05-10T06:30:38.610Z,14.00
2023-05-10T06:33:06.333Z,13.95
2023-05-10T06:35:34.559Z,13.02
2023-05-10T06:38:02.513Z,16.60
2023-05-10T06:40:30.097Z,17.63
2023-05-10T06:42:57.693Z,11.38
2023-05-10T06:45:25.412Z,16.88
2023-05-10T06:47:52.979Z,17.77
2023-05-10T06:50:20.631Z,12.05
2023-05-10T06:52:48.332Z,12.20
2023-05-10T06:55:16.606Z,17.88
2023-05-10T06:57:44.313Z,10.82
2023-05-10T07:00:12.332Z,11.30
2023-05-10T07:02:39.997Z,14.13
2023-05-10T07:05:07.897Z,16.48
2023-05-10T07:07:35.580Z,17.13
2023-05-10T07:10:03.714Z,13.63
2023-05-10T07:12:31.551Z,11.77
2023-05-10T07:14:59.174Z,7.85
2023-05-10T07:17:26.987Z,11.35
2023-05-10T07:19:54.585Z,8.80
2023-05-10T07:22:22.331Z,10.05
2023-05-10T07:24:49.953Z,13.93
2023-05-10T07:27:17.577Z,12.48
2023-05-10T07:29:45.107Z,11.65
2023-05-10T07:32:12.778Z,8.32
2023-05-10T07:34:40.349Z,8.43
2023-05-10T07:37:08.461Z,10.23
2023-05-10T07:39:36.035Z,8.00
2023-05-10T07:42:03.937Z,12.52
2023-05-10T07:44:31.493Z,8.40
2023-05-10T07:46:59.100Z,13.30
2023-05-10T07:49:27.122Z,10.70
2023-05-10T07:51:54.881Z,12.00
2023-05-10T07:54:22.584Z,11.35
2023-05-10T07:56:50.403Z,8.18
2023-05-10T07:59:18.772Z,9.57
2023-05-10T08:01:46.674Z,12.27
2023-05-10T08:04:14.419Z,12.95
2023-05-10T08:06:42.319Z,7.70
2023-05-10T08:09:10.052Z,15.00
2023-05-10T08:11:37.749Z,10.90
2023-05-10T08:14:05.473Z,13.90
2023-05-10T08:16:33.549Z,7.72
2023-05-10T08:19:01.315Z,11.85
2023-05-10T08:21:28.977Z,8.77
2023-05-10T08:23:56.675Z,9.32
2023-05-10T08:26:24.304Z,11.85
2023-05-10T08:28:51.839Z,11.95
2023-05-10T08:31:19.744Z,9.45
2023-05-10T08:33:47.287Z,11.02
2023-05-10T08:36:20.601Z,14.57
2023-05-10T08:38:52.095Z,17.88
2023-05-10T08:43:53.142Z,9.05
2023-05-10T08:46:22.935Z,8.30
2023-05-10T08:48:55.235Z,9.80
2023-05-10T08:51:27.845Z,7.88
2023-05-10T08:53:55.943Z,6.03
2023-05-10T08:56:24.660Z,11.50
2023-05-10T08:58:52.633Z,9.43
2023-05-10T09:01:21.227Z,9.00
2023-05-10T09:03:49.541Z,9.27
2023-05-10T09:06:17.277Z,11.57
2023-05-10T09:08:45.776Z,12.13
2023-05-10T09:11:14.128Z,15.80
2023-05-10T09:13:42.802Z,10.10
2023-05-10T09:16:21.130Z,10.13
2023-05-10T09:18:50.616Z,13.45
2023-05-10T09:21:20.393Z,10.82
2023-05-10T09:23:48.929Z,13.27
2023-05-10T09:26:17.201Z,9.55
2023-05-10T09:28:58.824Z,9.27
2023-05-10T09:31:55.823Z,7.22
2023-05-10T09:34:31.527Z,8.13
2023-05-10T09:37:02.419Z,7.57
2023-05-10T09:39:38.224Z,7.93
2023-05-10T09:42:10.019Z,5.78
2023-05-10T09:44:39.238Z,10.95
2023-05-10T09:47:06.929Z,7.82
2023-05-10T09:49:36.010Z,7.47
2023-05-10T09:52:08.597Z,4.68
2023-05-10T09:54:37.055Z,5.13
2023-05-10T09:57:04.603Z,4.55
2023-05-10T09:59:35.870Z,5.57
2023-05-10T10:02:03.946Z,11.73
2023-05-10T10:04:31.740Z,4.25
2023-05-10T10:07:03.946Z,14.38
2023-05-10T10:09:32.678Z,5.38
2023-05-10T10:12:04.825Z,5.53
2023-05-10T10:14:32.690Z,13.68
2023-05-10T10:19:34.581Z,11.30
2023-05-10T10:22:02.567Z,6.95
2023-05-10T10:24:30.382Z,6.57
2023-05-10T10:27:05.392Z,4.38
2023-05-10T10:29:32.899Z,3.75
2023-05-10T10:32:21.616Z,6.65
2023-05-10T10:34:49.590Z,7.60
2023-05-10T10:37:17.310Z,4.30
2023-05-10T10:39:45.030Z,4.40
2023-05-10T10:42:12.611Z,2.30
2023-05-10T10:44:41.334Z,4.88
2023-05-10T10:47:19.718Z,5.03
2023-05-10T10:49:52.496Z,4.78
2023-05-10T10:52:33.680Z,7.65
2023-05-10T10:55:07.527Z,3.35
2023-05-10T10:57:47.222Z,5.55
2023-05-10T11:00:24.951Z,4.78
2023-05-10T11:02:58.895Z,3.83
2023-05-10T11:05:49.349Z,4.07
2023-05-10T11:08:30.113Z,3.88
2023-05-10T11:11:00.825Z,4.65
2023-05-10T11:13:39.482Z,6.38
2023-05-10T11:16:25.900Z,5.70
2023-05-10T11:19:10.525Z,7.28
2023-05-10T11:24:28.042Z,5.97
2023-05-10T11:26:55.866Z,3.53
2023-05-10T11:29:23.909Z,6.13
2023-05-10T11:31:52.661Z,3.47
2023-05-10T11:34:39.419Z,3.95
2023-05-10T11:37:07.000Z,3.85
2023-05-10T11:39:34.631Z,8.00
2023-05-10T11:42:02.261Z,3.90
2023-05-10T11:44:33.448Z,5.47
2023-05-10T11:47:01.892Z,2.92
2023-05-10T11:49:29.549Z,4.00
2023-05-10T11:52:09.750Z,5.78
2023-05-10T11:54:37.354Z,4.40
2023-05-10T11:57:05.185Z,3.97
2023-05-10T11:59:32.852Z,2.83
2023-05-10T12:02:00.835Z,6.28
2023-05-10T12:04:30.537Z,4.70
2023-05-10T12:06:58.503Z,2.05
2023-05-10T12:09:39.656Z,4.13
2023-05-10T12:12:11.620Z,4.63
2023-05-10T12:14:39.122Z,4.28
2023-05-10T12:17:06.872Z,5.53
2023-05-10T12:19:42.615Z,11.40
2023-05-10T12:22:10.202Z,5.70
2023-05-10T12:24:39.145Z,3.58
2023-05-10T12:27:09.339Z,4.95
2023-05-10T12:29:37.593Z,4.22
2023-05-10T12:32:05.300Z,4.97
2023-05-10T12:34:37.260Z,3.97
2023-05-10T12:37:05.465Z,5.65
2023-05-10T12:39:41.405Z,5.78
2023-05-10T12:42:09.448Z,10.48
2023-05-10T12:44:37.005Z,13.90
2023-05-10T12:47:04.655Z,7.68
2023-05-10T12:49:32.374Z,7.65
2023-05-10T12:51:59.938Z,3.10
2023-05-10T12:54:27.561Z,6.53
2023-05-10T12:56:55.244Z,3.65
2023-05-10T12:59:23.839Z,4.03
2023-05-10T13:01:51.472Z,6.63
2023-05-10T13:04:18.985Z,5.63
2023-05-10T13:06:46.866Z,7.32
2023-05-10T13:09:14.453Z,6.18
2023-05-10T13:11:42.263Z,7.10
2023-05-10T13:14:09.892Z,4.97
2023-05-10T13:16:37.469Z,5.15
2023-05-10T13:19:05.022Z,5.57
2023-05-10T13:21:32.678Z,7.07
2023-05-10T13:24:01.349Z,6.28
2023-05-10T13:26:31.953Z,5.43
2023-05-10T13:28:59.676Z,3.70
2023-05-10T13:31:27.410Z,4.28
2023-05-10T13:33:54.993Z,3.90
2023-05-10T13:36:23.805Z,5.07
2023-05-10T13:38:51.534Z,7.32
2023-05-10T13:41:19.289Z,7.93
2023-05-10T13:43:46.872Z,8.55
2023-05-10T13:46:14.433Z,6.97
2023-05-10T13:48:42.132Z,11.43
2023-05-10T13:51:09.713Z,7.57
2023-05-10T13:53:37.537Z,6.32
2023-05-10T13:56:05.209Z,8.25
2023-05-10T13:58:32.756Z,7.22
2023-05-10T14:01:00.328Z,4.85
2023-05-10T14:03:27.984Z,4.10
2023-05-10T14:05:55.701Z,8.52
2023-05-10T14:08:23.645Z,10.75
2023-05-10T14:10:51.782Z,6.20
2023-05-10T14:13:19.320Z,5.65
2023-05-10T14:15:47.092Z,6.43
2023-05-10T14:18:15.307Z,5.75
2023-05-10T14:20:42.890Z,6.90
2023-05-10T14:23:11.917Z,6.78
2023-05-10T14:25:41.818Z,8.32
2023-05-10T14:28:10.541Z,7.32
2023-05-10T14:30:38.181Z,5.65
2023-05-10T14:33:05.921Z,5.97
2023-05-10T14:35:33.533Z,5.18
2023-05-10T14:38:01.584Z,7.35
2023-05-10T14:40:29.734Z,8.35
2023-05-10T14:42:57.884Z,6.53
2023-05-10T14:45:25.431Z,7.47
2023-05-10T14:47:53.154Z,6.95
2023-05-10T14:50:35.196Z,7.72
2023-05-10T14:53:03.911Z,8.95
2023-05-10T14:55:31.494Z,6.72
2023-05-10T14:57:59.415Z,7.15
2023-05-10T15:00:28.703Z,4.85
2023-05-10T15:02:56.850Z,7.25
2023-05-10T15:05:24.944Z,4.20
2023-05-10T15:07:52.821Z,7.45
2023-05-10T15:10:20.388Z,5.80
2023-05-10T15:12:47.920Z,8.40
2023-05-10T15:15:16.225Z,4.30
2023-05-10T15:17:44.481Z,6.50
2023-05-10T15:20:12.411Z,9.13
2023-05-10T15:22:39.939Z,6.72
2023-05-10T15:25:07.787Z,6.05
2023-05-10T15:27:35.725Z,5.60
2023-05-10T15:30:03.717Z,9.93
2023-05-10T15:32:31.996Z,10.77
2023-05-10T15:34:59.610Z,7.28
2023-05-10T15:37:27.314Z,6.25
2023-05-10T15:39:56.329Z,8.68
2023-05-10T15:42:25.026Z,8.57
2023-05-10T15:44:52.556Z,4.57
2023-05-10T15:47:20.259Z,4.18
2023-05-10T15:49:47.853Z,4.10
2023-05-10T15:52:15.710Z,3.83
2023-05-10T15:54:43.212Z,4.35
2023-05-10T15:57:10.759Z,3.95
2023-05-10T15:59:38.401Z,7.35
2023-05-10T16:02:07.420Z,5.60
2023-05-10T16:04:34.996Z,3.92
2023-05-10T16:07:02.648Z,4.95
2023-05-10T16:09:30.624Z,4.60
2023-05-10T16:11:58.359Z,4.30
2023-05-10T16:14:26.172Z,5.45
2023-05-10T16:16:53.871Z,5.05
2023-05-10T16:19:21.687Z,4.55
2023-05-10T16:21:49.890Z,6.10
2023-05-10T16:24:17.475Z,6.90
2023-05-10T16:26:45.627Z,6.50
2023-05-10T16:29:13.447Z,7.30
2023-05-10T16:31:40.945Z,8.32
2023-05-10T16:34:08.633Z,6.28
2023-05-10T16:36:36.370Z,6.30
2023-05-10T16:39:04.222Z,5.95
2023-05-10T16:41:35.214Z,8.35
2023-05-10T16:44:03.873Z,6.45
2023-05-10T16:46:31.697Z,6.50
2023-05-10T16:49:00.284Z,6.78
2023-05-10T16:51:29.074Z,6.25
2023-05-10T16:53:56.674Z,7.03
2023-05-10T16:56:24.704Z,6.50
2023-05-10T16:58:52.381Z,5.00
2023-05-10T17:01:20.047Z,6.03
2023-05-10T17:03:47.727Z,6.30
2023-05-10T17:06:15.457Z,6.15
2023-05-10T17:08:43.256Z,4.28
2023-05-10T17:11:10.840Z,4.78
2023-05-10T17:13:38.891Z,5.60
2023-05-10T17:16:07.032Z,4.85
2023-05-10T17:18:34.624Z,7.90
2023-05-10T17:21:02.366Z,4.43
2023-05-10T17:23:30.451Z,5.85
2023-05-10T17:26:00.185Z,4.05
2023-05-10T17:28:29.200Z,5.10
2023-05-10T17:31:00.079Z,4.80
2023-05-10T17:33:27.891Z,6.28
2023-05-10T17:35:56.462Z,4.82
2023-05-10T17:38:24.008Z,6.57
2023-05-10T17:40:51.814Z,9.00
2023-05-10T17:43:21.611Z,8.23
2023-05-10T17:45:50.000Z,5.82
2023-05-10T17:48:17.884Z,6.82
2023-05-10T17:50:45.595Z,3.35
2023-05-10T17:53:13.142Z,4.50
2023-05-10T17:55:41.668Z,4.40
2023-05-10T17:58:12.019Z,4.88
2023-05-10T18:00:39.853Z,5.05
2023-05-10T18:03:07.473Z,5.30
2023-05-10T18:05:39.372Z,6.18
2023-05-10T18:08:07.609Z,4.68
2023-05-10T18:10:36.376Z,6.18
2023-05-10T18:13:06.895Z,8.98
2023-05-10T18:15:35.648Z,6.70
2023-05-10T18:18:04.500Z,3.65
2023-05-10T18:20:56.433Z,6.13
2023-05-10T18:23:24.700Z,5.00
2023-05-10T18:25:52.633Z,4.78
2023-05-10T18:28:20.186Z,5.72
2023-05-10T18:30:47.843Z,5.15
2023-05-10T18:33:15.916Z,7.65
2023-05-10T18:35:43.593Z,5.97
2023-05-10T18:38:11.887Z,4.10
2023-05-10T18:40:42.405Z,6.20
2023-05-10T18:43:10.141Z,7.43
2023-05-10T18:45:39.035Z,6.85
2023-05-10T18:48:07.817Z,4.22
2023-05-10T18:50:35.555Z,4.00
2023-05-10T18:53:03.426Z,6.00
2023-05-10T18:55:31.207Z,5.53
2023-05-10T18:57:58.947Z,6.75
2023-05-10T19:00:26.531Z,3.70
2023-05-10T19:02:54.249Z,6.63
2023-05-10T19:05:22.056Z,5.22
2023-05-10T19:07:49.534Z,4.95
2023-05-10T19:10:17.158Z,4.00
2023-05-10T19:12:44.738Z,4.15
2023-05-10T19:15:12.292Z,3.88
2023-05-10T19:17:42.092Z,8.15
2023-05-10T19:20:11.961Z,7.68
2023-05-10T19:25:11.486Z,5.13
2023-05-10T19:27:39.722Z,6.50
2023-05-10T19:30:08.633Z,7.00
2023-05-10T19:32:37.209Z,10.77
2023-05-10T19:35:05.686Z,5.93
2023-05-10T19:37:33.225Z,9.35
2023-05-10T19:40:01.588Z,9.88
2023-05-10T19:42:29.910Z,6.47
2023-05-10T19:44:59.276Z,6.97
2023-05-10T19:47:27.378Z,6.53
2023-05-10T19:49:56.024Z,6.30
2023-05-10T19:52:24.036Z,5.88
2023-05-10T19:54:51.901Z,5.40
2023-05-10T19:57:19.596Z,8.50
2023-05-10T19:59:47.227Z,9.13
2023-05-10T20:02:14.953Z,4.95
2023-05-10T20:04:42.863Z,8.38
2023-05-10T20:07:11.386Z,8.57
2023-05-10T20:09:38.929Z,7.90
2023-05-10T20:12:06.546Z,7.78
2023-05-10T20:14:34.602Z,5.35
2023-05-10T20:17:02.359Z,5.93
2023-05-10T20:19:30.258Z,5.72
2023-05-10T20:21:58.776Z,6.07
2023-05-10T20:24:26.409Z,6.60
2023-05-10T20:26:53.943Z,10.90
2023-05-10T20:29:21.511Z,6.35
2023-05-10T20:31:49.077Z,11.20
2023-05-10T20:34:16.714Z,8.05
2023-05-10T20:36:44.292Z,6.55
2023-05-10T20:39:11.795Z,6.07
2023-05-10T20:41:39.479Z,8.15
2023-05-10T20:44:07.009Z,6.50
2023-05-10T20:46:34.761Z,8.07
2023-05-10T20:49:02.591Z,10.18
2023-05-10T20:51:30.515Z,9.60
2023-05-10T20:53:58.165Z,6.47
2023-05-10T20:56:26.827Z,8.27
2023-05-10T20:58:55.289Z,10.55
2023-05-10T21:01:23.214Z,10.35
2023-05-10T21:03:50.914Z,11.93
2023-05-10T21:06:18.486Z,8.32
2023-05-10T21:08:46.015Z,10.40
2023-05-10T21:11:14.158Z,6.18
2023-05-10T21:13:41.709Z,9.85
2023-05-10T21:16:09.286Z,10.30
2023-05-10T21:18:37.172Z,11.45
2023-05-10T21:21:04.771Z,8.43
2023-05-10T21:23:34.424Z,6.78
2023-05-10T21:26:05.480Z,6.38
2023-05-10T21:28:33.148Z,6.83
2023-05-10T21:31:00.700Z,9.10
2023-05-10T21:33:28.355Z,9.05
2023-05-10T21:35:56.835Z,8.27
2023-05-10T21:38:24.376Z,8.93
2023-05-10T21:40:51.857Z,12.13
2023-05-10T21:43:19.556Z,7.43
2023-05-10T21:45:47.122Z,6.38
2023-05-10T21:48:14.943Z,8.75
2023-05-10T21:50:43.816Z,7.78
2023-05-10T21:53:11.816Z,10.52
2023-05-10T21:55:39.557Z,11.10
2023-05-10T21:58:07.299Z,7.57
2023-05-10T22:00:35.616Z,8.05
2023-05-10T22:03:03.296Z,8.18
2023-05-10T22:05:31.155Z,12.43
2023-05-10T22:07:58.725Z,12.60
2023-05-10T22:10:26.300Z,7.95
2023-05-10T22:12:53.989Z,9.93
2023-05-10T22:15:21.556Z,9.88
2023-05-10T22:17:49.156Z,11.85
2023-05-10T22:20:16.934Z,11.02
2023-05-10T22:22:45.311Z,14.15
2023-05-10T22:25:12.857Z,12.70
2023-05-10T22:27:40.688Z,9.65
2023-05-10T22:30:08.908Z,14.32
2023-05-10T22:32:36.521Z,11.80
2023-05-10T22:35:04.425Z,9.65
2023-05-10T22:37:31.943Z,13.07
2023-05-10T22:39:59.462Z,12.30
2023-05-10T22:42:27.051Z,13.48
2023-05-10T22:44:54.782Z,9.32
2023-05-10T22:47:22.279Z,9.90
2023-05-10T22:49:49.945Z,8.85
2023-05-10T22:52:17.439Z,10.50
2023-05-10T22:54:44.968Z,10.82
2023-05-10T22:57:12.825Z,11.88
2023-05-10T22:59:40.872Z,13.20
2023-05-10T23:02:09.261Z,9.90
2023-05-10T23:04:37.134Z,15.50
2023-05-10T23:07:04.679Z,8.40
2023-05-10T23:09:32.172Z,9.82
2023-05-10T23:11:59.747Z,8.82
2023-05-10T23:14:27.219Z,12.52
2023-05-10T23:16:54.810Z,11.85
2023-05-10T23:19:22.408Z,9.70
2023-05-10T23:21:49.993Z,11.20
2023-05-10T23:24:17.668Z,12.00
2023-05-10T23:26:46.602Z,14.13
2023-05-10T23:29:14.148Z,11.20
2023-05-10T23:31:45.502Z,13.68
2023-05-10T23:34:13.232Z,8.32
2023-05-10T23:36:40.810Z,7.75
2023-05-10T23:39:08.378Z,16.52
2023-05-10T23:41:35.965Z,13.70
2023-05-10T23:44:03.495Z,11.70
2023-05-10T23:46:31.207Z,10.35
2023-05-10T23:48:58.811Z,13.32
2023-05-10T23:51:26.453Z,10.57
2023-05-10T23:54:05.396Z,13.32
2023-05-10T23:56:33.074Z,11.82
2023-05-10T23:59:00.557Z,13.38
